sensor_id;sensor_type;location;lat;lon;timestamp;P1;durP1;ratioP1;P2;durP2;ratioP2
40511;SDS011;26213;52.446;20.706;2022-09-29T00:01:46;8.00;;;6.15;;
40511;SDS011;26213;52.446;20.706;2022-09-29T00:04:12;8.38;;;6.72;;
40511;SDS011;26213;52.446;20.706;2022-09-29T00:06:37;10.65;;;8.02;;
40511;SDS011;26213;52.446;20.706;2022-09-29T00:09:03;10.18;;;6.78;;
40511;SDS011;26213;52.446;20.706;2022-09-29T00:11:28;9.07;;;6.68;;
40511;SDS011;26213;52.446;20.706;2022-09-29T00:13:54;12.32;;;7.65;;
40511;SDS011;26213;52.446;20.706;2022-09-29T00:16:20;11.30;;;7.85;;
40511;SDS011;26213;52.446;20.706;2022-09-29T00:18:45;11.77;;;7.88;;
40511;SDS011;26213;52.446;20.706;2022-09-29T00:21:13;10.70;;;7.78;;
40511;SDS011;26213;52.446;20.706;2022-09-29T00:23:41;11.60;;;8.98;;
40511;SDS011;26213;52.446;20.706;2022-09-29T00:26:07;10.82;;;8.05;;
40511;SDS011;26213;52.446;20.706;2022-09-29T00:28:36;10.13;;;8.27;;
40511;SDS011;26213;52.446;20.706;2022-09-29T00:31:03;13.10;;;8.65;;
40511;SDS011;26213;52.446;20.706;2022-09-29T00:33:33;10.52;;;9.27;;
40511;SDS011;26213;52.446;20.706;2022-09-29T00:36:01;12.90;;;10.13;;
40511;SDS011;26213;52.446;20.706;2022-09-29T00:38:31;10.68;;;8.88;;
40511;SDS011;26213;52.446;20.706;2022-09-29T00:40:57;10.73;;;9.20;;
40511;SDS011;26213;52.446;20.706;2022-09-29T00:46:13;12.35;;;9.80;;
40511;SDS011;26213;52.446;20.706;2022-09-29T00:48:41;14.25;;;10.18;;
40511;SDS011;26213;52.446;20.706;2022-09-29T00:51:07;20.15;;;16.38;;
40511;SDS011;26213;52.446;20.706;2022-09-29T00:53:33;22.95;;;15.60;;
40511;SDS011;26213;52.446;20.706;2022-09-29T00:56:00;19.48;;;15.35;;
40511;SDS011;26213;52.446;20.706;2022-09-29T00:58:37;20.42;;;13.43;;
40511;SDS011;26213;52.446;20.706;2022-09-29T01:01:05;25.35;;;13.82;;
40511;SDS011;26213;52.446;20.706;2022-09-29T01:03:32;29.00;;;14.38;;
40511;SDS011;26213;52.446;20.706;2022-09-29T01:06:05;47.72;;;17.05;;
40511;SDS011;26213;52.446;20.706;2022-09-29T01:11:03;38.53;;;16.33;;
40511;SDS011;26213;52.446;20.706;2022-09-29T01:13:30;40.22;;;16.00;;
40511;SDS011;26213;52.446;20.706;2022-09-29T01:15:56;21.88;;;14.77;;
40511;SDS011;26213;52.446;20.706;2022-09-29T01:18:22;30.75;;;16.40;;
40511;SDS011;26213;52.446;20.706;2022-09-29T01:20:52;21.13;;;15.48;;
40511;SDS011;26213;52.446;20.706;2022-09-29T01:31:17;23.27;;;16.40;;
40511;SDS011;26213;52.446;20.706;2022-09-29T01:44:38;19.05;;;15.00;;
40511;SDS011;26213;52.446;20.706;2022-09-29T01:47:09;21.50;;;14.45;;
40511;SDS011;26213;52.446;20.706;2022-09-29T01:49:39;20.33;;;13.60;;
40511;SDS011;26213;52.446;20.706;2022-09-29T01:52:12;20.77;;;14.55;;
40511;SDS011;26213;52.446;20.706;2022-09-29T01:54:42;20.65;;;13.82;;
40511;SDS011;26213;52.446;20.706;2022-09-29T02:05:23;16.00;;;12.52;;
40511;SDS011;26213;52.446;20.706;2022-09-29T02:08:01;16.15;;;11.68;;
40511;SDS011;26213;52.446;20.706;2022-09-29T02:10:40;16.48;;;11.82;;
40511;SDS011;26213;52.446;20.706;2022-09-29T02:15:45;22.95;;;11.95;;
40511;SDS011;26213;52.446;20.706;2022-09-29T02:18:15;18.35;;;12.60;;
40511;SDS011;26213;52.446;20.706;2022-09-29T02:20:45;17.05;;;12.68;;
40511;SDS011;26213;52.446;20.706;2022-09-29T02:23:10;17.40;;;12.43;;
40511;SDS011;26213;52.446;20.706;2022-09-29T02:25:36;17.00;;;11.93;;
40511;SDS011;26213;52.446;20.706;2022-09-29T02:28:03;17.00;;;12.17;;
40511;SDS011;26213;52.446;20.706;2022-09-29T02:30:29;20.27;;;12.77;;
40511;SDS011;26213;52.446;20.706;2022-09-29T02:32:54;16.05;;;11.38;;
40511;SDS011;26213;52.446;20.706;2022-09-29T02:35:20;16.30;;;12.63;;
40511;SDS011;26213;52.446;20.706;2022-09-29T02:37:47;15.90;;;12.07;;
40511;SDS011;26213;52.446;20.706;2022-09-29T03:02:27;16.75;;;12.07;;
40511;SDS011;26213;52.446;20.706;2022-09-29T03:04:52;17.80;;;11.82;;
40511;SDS011;26213;52.446;20.706;2022-09-29T03:07:19;16.40;;;11.07;;
40511;SDS011;26213;52.446;20.706;2022-09-29T03:09:45;17.83;;;12.40;;
40511;SDS011;26213;52.446;20.706;2022-09-29T03:12:11;12.00;;;9.48;;
40511;SDS011;26213;52.446;20.706;2022-09-29T03:14:36;13.68;;;10.57;;
40511;SDS011;26213;52.446;20.706;2022-09-29T03:17:02;20.27;;;12.10;;
40511;SDS011;26213;52.446;20.706;2022-09-29T03:19:28;16.15;;;11.63;;
40511;SDS011;26213;52.446;20.706;2022-09-29T03:21:53;15.07;;;11.68;;
40511;SDS011;26213;52.446;20.706;2022-09-29T03:24:19;14.50;;;10.80;;
40511;SDS011;26213;52.446;20.706;2022-09-29T03:26:44;14.57;;;11.85;;
40511;SDS011;26213;52.446;20.706;2022-09-29T03:29:10;16.02;;;11.75;;
40511;SDS011;26213;52.446;20.706;2022-09-29T03:31:38;14.07;;;10.80;;
40511;SDS011;26213;52.446;20.706;2022-09-29T03:34:04;13.93;;;10.02;;
40511;SDS011;26213;52.446;20.706;2022-09-29T03:36:29;13.15;;;10.50;;
40511;SDS011;26213;52.446;20.706;2022-09-29T03:38:55;16.58;;;11.55;;
40511;SDS011;26213;52.446;20.706;2022-09-29T03:41:20;15.07;;;11.27;;
40511;SDS011;26213;52.446;20.706;2022-09-29T03:43:46;15.25;;;11.13;;
40511;SDS011;26213;52.446;20.706;2022-09-29T03:46:11;15.52;;;11.20;;
40511;SDS011;26213;52.446;20.706;2022-09-29T03:48:37;17.63;;;11.75;;
40511;SDS011;26213;52.446;20.706;2022-09-29T03:51:03;17.02;;;11.60;;
40511;SDS011;26213;52.446;20.706;2022-09-29T03:53:30;14.57;;;11.38;;
40511;SDS011;26213;52.446;20.706;2022-09-29T03:55:55;17.85;;;11.52;;
40511;SDS011;26213;52.446;20.706;2022-09-29T03:58:21;16.42;;;12.40;;
40511;SDS011;26213;52.446;20.706;2022-09-29T04:00:47;15.80;;;11.00;;
40511;SDS011;26213;52.446;20.706;2022-09-29T04:03:13;18.73;;;12.23;;
40511;SDS011;26213;52.446;20.706;2022-09-29T04:05:39;15.38;;;11.13;;
40511;SDS011;26213;52.446;20.706;2022-09-29T04:08:05;17.73;;;11.88;;
40511;SDS011;26213;52.446;20.706;2022-09-29T04:10:37;18.30;;;12.27;;
40511;SDS011;26213;52.446;20.706;2022-09-29T04:13:03;23.35;;;13.95;;
40511;SDS011;26213;52.446;20.706;2022-09-29T04:15:29;14.18;;;11.82;;
40511;SDS011;26213;52.446;20.706;2022-09-29T04:17:55;16.48;;;12.88;;
40511;SDS011;26213;52.446;20.706;2022-09-29T04:20:21;17.48;;;12.90;;
40511;SDS011;26213;52.446;20.706;2022-09-29T04:22:46;17.85;;;14.05;;
40511;SDS011;26213;52.446;20.706;2022-09-29T04:25:12;20.55;;;13.63;;
40511;SDS011;26213;52.446;20.706;2022-09-29T04:27:37;17.63;;;13.88;;
40511;SDS011;26213;52.446;20.706;2022-09-29T04:30:04;18.92;;;14.32;;
40511;SDS011;26213;52.446;20.706;2022-09-29T04:32:30;16.58;;;12.57;;
40511;SDS011;26213;52.446;20.706;2022-09-29T04:34:56;31.63;;;20.75;;
40511;SDS011;26213;52.446;20.706;2022-09-29T04:37:21;21.48;;;17.20;;
40511;SDS011;26213;52.446;20.706;2022-09-29T04:39:47;19.00;;;14.75;;
40511;SDS011;26213;52.446;20.706;2022-09-29T04:42:13;27.45;;;19.05;;
40511;SDS011;26213;52.446;20.706;2022-09-29T04:44:38;27.83;;;21.92;;
40511;SDS011;26213;52.446;20.706;2022-09-29T04:47:03;24.27;;;19.17;;
40511;SDS011;26213;52.446;20.706;2022-09-29T04:49:29;20.23;;;16.00;;
40511;SDS011;26213;52.446;20.706;2022-09-29T04:51:55;20.08;;;15.75;;
40511;SDS011;26213;52.446;20.706;2022-09-29T04:54:20;20.23;;;15.57;;
40511;SDS011;26213;52.446;20.706;2022-09-29T04:56:49;27.10;;;21.10;;
40511;SDS011;26213;52.446;20.706;2022-09-29T04:59:15;25.15;;;16.15;;
40511;SDS011;26213;52.446;20.706;2022-09-29T05:01:43;21.55;;;15.93;;
40511;SDS011;26213;52.446;20.706;2022-09-29T05:04:09;20.38;;;15.18;;
40511;SDS011;26213;52.446;20.706;2022-09-29T05:06:37;21.17;;;14.45;;
40511;SDS011;26213;52.446;20.706;2022-09-29T05:09:04;21.27;;;15.65;;
40511;SDS011;26213;52.446;20.706;2022-09-29T05:11:30;19.52;;;15.25;;
40511;SDS011;26213;52.446;20.706;2022-09-29T05:13:55;23.13;;;16.17;;
40511;SDS011;26213;52.446;20.706;2022-09-29T05:16:21;19.90;;;16.30;;
40511;SDS011;26213;52.446;20.706;2022-09-29T05:18:47;21.55;;;16.52;;
40511;SDS011;26213;52.446;20.706;2022-09-29T05:21:12;21.40;;;16.80;;
40511;SDS011;26213;52.446;20.706;2022-09-29T05:23:38;21.63;;;16.42;;
40511;SDS011;26213;52.446;20.706;2022-09-29T05:26:07;22.10;;;16.30;;
40511;SDS011;26213;52.446;20.706;2022-09-29T05:28:33;20.63;;;15.63;;
40511;SDS011;26213;52.446;20.706;2022-09-29T05:31:00;23.50;;;17.13;;
40511;SDS011;26213;52.446;20.706;2022-09-29T05:33:30;26.70;;;18.95;;
40511;SDS011;26213;52.446;20.706;2022-09-29T05:35:56;25.10;;;18.70;;
40511;SDS011;26213;52.446;20.706;2022-09-29T05:38:22;21.60;;;17.65;;
40511;SDS011;26213;52.446;20.706;2022-09-29T05:40:48;22.27;;;17.10;;
40511;SDS011;26213;52.446;20.706;2022-09-29T05:43:14;21.35;;;16.55;;
40511;SDS011;26213;52.446;20.706;2022-09-29T05:45:39;20.25;;;16.73;;
40511;SDS011;26213;52.446;20.706;2022-09-29T05:48:05;21.27;;;15.88;;
40511;SDS011;26213;52.446;20.706;2022-09-29T05:50:30;20.83;;;16.63;;
40511;SDS011;26213;52.446;20.706;2022-09-29T05:53:01;25.75;;;16.98;;
40511;SDS011;26213;52.446;20.706;2022-09-29T05:55:27;22.08;;;16.60;;
40511;SDS011;26213;52.446;20.706;2022-09-29T05:57:52;20.48;;;16.48;;
40511;SDS011;26213;52.446;20.706;2022-09-29T06:00:18;21.25;;;17.63;;
40511;SDS011;26213;52.446;20.706;2022-09-29T06:02:43;22.15;;;18.13;;
40511;SDS011;26213;52.446;20.706;2022-09-29T06:05:09;22.67;;;17.10;;
40511;SDS011;26213;52.446;20.706;2022-09-29T06:07:34;22.67;;;18.48;;
40511;SDS011;26213;52.446;20.706;2022-09-29T06:09:59;22.50;;;16.92;;
40511;SDS011;26213;52.446;20.706;2022-09-29T06:12:25;22.08;;;17.50;;
40511;SDS011;26213;52.446;20.706;2022-09-29T06:14:50;22.92;;;16.40;;
40511;SDS011;26213;52.446;20.706;2022-09-29T06:17:16;25.35;;;17.15;;
40511;SDS011;26213;52.446;20.706;2022-09-29T06:19:41;21.40;;;16.33;;
40511;SDS011;26213;52.446;20.706;2022-09-29T06:22:07;21.17;;;16.90;;
40511;SDS011;26213;52.446;20.706;2022-09-29T06:24:32;20.50;;;16.13;;
40511;SDS011;26213;52.446;20.706;2022-09-29T06:26:57;21.42;;;17.17;;
40511;SDS011;26213;52.446;20.706;2022-09-29T06:29:23;20.60;;;16.20;;
40511;SDS011;26213;52.446;20.706;2022-09-29T06:31:48;21.90;;;17.88;;
40511;SDS011;26213;52.446;20.706;2022-09-29T06:34:14;19.23;;;16.23;;
40511;SDS011;26213;52.446;20.706;2022-09-29T06:36:40;19.23;;;16.00;;
40511;SDS011;26213;52.446;20.706;2022-09-29T06:39:25;20.48;;;17.58;;
40511;SDS011;26213;52.446;20.706;2022-09-29T06:41:51;19.02;;;16.13;;
40511;SDS011;26213;52.446;20.706;2022-09-29T06:44:22;22.17;;;17.10;;
40511;SDS011;26213;52.446;20.706;2022-09-29T06:46:49;19.35;;;16.02;;
40511;SDS011;26213;52.446;20.706;2022-09-29T06:49:15;20.25;;;16.77;;
40511;SDS011;26213;52.446;20.706;2022-09-29T06:51:41;23.00;;;16.00;;
40511;SDS011;26213;52.446;20.706;2022-09-29T06:54:08;21.77;;;15.98;;
40511;SDS011;26213;52.446;20.706;2022-09-29T06:56:35;22.48;;;18.35;;
40511;SDS011;26213;52.446;20.706;2022-09-29T06:59:01;19.63;;;15.60;;
40511;SDS011;26213;52.446;20.706;2022-09-29T07:01:26;22.83;;;16.65;;
40511;SDS011;26213;52.446;20.706;2022-09-29T07:03:52;15.30;;;12.73;;
40511;SDS011;26213;52.446;20.706;2022-09-29T07:06:17;20.80;;;15.27;;
40511;SDS011;26213;52.446;20.706;2022-09-29T07:08:42;16.98;;;13.85;;
40511;SDS011;26213;52.446;20.706;2022-09-29T07:11:08;13.73;;;12.05;;
40511;SDS011;26213;52.446;20.706;2022-09-29T07:13:34;14.63;;;11.63;;
40511;SDS011;26213;52.446;20.706;2022-09-29T07:16:06;18.73;;;15.30;;
40511;SDS011;26213;52.446;20.706;2022-09-29T07:18:33;14.90;;;12.30;;
40511;SDS011;26213;52.446;20.706;2022-09-29T07:21:00;13.65;;;11.48;;
40511;SDS011;26213;52.446;20.706;2022-09-29T07:23:26;23.65;;;16.35;;
40511;SDS011;26213;52.446;20.706;2022-09-29T07:25:52;18.20;;;14.60;;
40511;SDS011;26213;52.446;20.706;2022-09-29T07:28:18;17.35;;;14.57;;
40511;SDS011;26213;52.446;20.706;2022-09-29T07:30:44;18.85;;;15.05;;
40511;SDS011;26213;52.446;20.706;2022-09-29T07:33:09;19.50;;;14.25;;
40511;SDS011;26213;52.446;20.706;2022-09-29T07:35:34;25.15;;;15.70;;
40511;SDS011;26213;52.446;20.706;2022-09-29T07:38:00;17.30;;;13.98;;
40511;SDS011;26213;52.446;20.706;2022-09-29T07:40:25;19.83;;;15.13;;
40511;SDS011;26213;52.446;20.706;2022-09-29T07:42:52;15.63;;;13.27;;
40511;SDS011;26213;52.446;20.706;2022-09-29T07:45:18;27.15;;;17.88;;
40511;SDS011;26213;52.446;20.706;2022-09-29T07:47:43;14.43;;;12.88;;
40511;SDS011;26213;52.446;20.706;2022-09-29T07:50:09;15.02;;;13.02;;
40511;SDS011;26213;52.446;20.706;2022-09-29T07:52:35;17.63;;;13.55;;
40511;SDS011;26213;52.446;20.706;2022-09-29T07:55:01;20.40;;;12.68;;
40511;SDS011;26213;52.446;20.706;2022-09-29T07:57:27;14.45;;;11.60;;
40511;SDS011;26213;52.446;20.706;2022-09-29T07:59:53;19.63;;;13.27;;
40511;SDS011;26213;52.446;20.706;2022-09-29T08:02:19;14.45;;;11.70;;
40511;SDS011;26213;52.446;20.706;2022-09-29T08:04:45;14.00;;;10.43;;
40511;SDS011;26213;52.446;20.706;2022-09-29T08:07:11;10.30;;;8.90;;
40511;SDS011;26213;52.446;20.706;2022-09-29T08:09:36;10.02;;;8.30;;
40511;SDS011;26213;52.446;20.706;2022-09-29T08:12:02;10.57;;;7.18;;
40511;SDS011;26213;52.446;20.706;2022-09-29T08:14:27;10.70;;;7.53;;
40511;SDS011;26213;52.446;20.706;2022-09-29T08:16:53;10.07;;;7.32;;
40511;SDS011;26213;52.446;20.706;2022-09-29T08:19:18;11.10;;;8.13;;
40511;SDS011;26213;52.446;20.706;2022-09-29T08:21:44;10.50;;;7.53;;
40511;SDS011;26213;52.446;20.706;2022-09-29T08:24:14;9.68;;;7.28;;
40511;SDS011;26213;52.446;20.706;2022-09-29T08:26:41;11.55;;;7.88;;
40511;SDS011;26213;52.446;20.706;2022-09-29T08:29:07;12.35;;;8.57;;
40511;SDS011;26213;52.446;20.706;2022-09-29T08:31:32;10.82;;;7.97;;
40511;SDS011;26213;52.446;20.706;2022-09-29T08:33:58;11.63;;;8.48;;
40511;SDS011;26213;52.446;20.706;2022-09-29T08:36:24;15.75;;;10.45;;
40511;SDS011;26213;52.446;20.706;2022-09-29T08:38:51;14.27;;;9.50;;
40511;SDS011;26213;52.446;20.706;2022-09-29T08:41:24;11.75;;;8.93;;
40511;SDS011;26213;52.446;20.706;2022-09-29T08:44:09;15.35;;;11.90;;
40511;SDS011;26213;52.446;20.706;2022-09-29T08:46:37;18.98;;;13.13;;
40511;SDS011;26213;52.446;20.706;2022-09-29T08:49:10;12.32;;;9.15;;
40511;SDS011;26213;52.446;20.706;2022-09-29T08:51:42;11.63;;;9.38;;
40511;SDS011;26213;52.446;20.706;2022-09-29T08:54:26;13.90;;;10.52;;
40511;SDS011;26213;52.446;20.706;2022-09-29T08:56:55;14.20;;;10.90;;
40511;SDS011;26213;52.446;20.706;2022-09-29T08:59:22;14.00;;;9.50;;
40511;SDS011;26213;52.446;20.706;2022-09-29T09:07:37;18.38;;;11.40;;
40511;SDS011;26213;52.446;20.706;2022-09-29T09:10:28;15.75;;;11.15;;
40511;SDS011;26213;52.446;20.706;2022-09-29T09:15:38;16.42;;;11.43;;
40511;SDS011;26213;52.446;20.706;2022-09-29T09:20:51;15.20;;;11.55;;
40511;SDS011;26213;52.446;20.706;2022-09-29T09:26:06;17.55;;;13.63;;
40511;SDS011;26213;52.446;20.706;2022-09-29T09:31:05;16.85;;;12.63;;
40511;SDS011;26213;52.446;20.706;2022-09-29T09:33:36;14.00;;;11.55;;
40511;SDS011;26213;52.446;20.706;2022-09-29T09:36:12;18.50;;;13.40;;
40511;SDS011;26213;52.446;20.706;2022-09-29T09:38:46;18.30;;;13.20;;
40511;SDS011;26213;52.446;20.706;2022-09-29T09:41:17;19.20;;;14.20;;
40511;SDS011;26213;52.446;20.706;2022-09-29T09:43:45;15.82;;;11.93;;
40511;SDS011;26213;52.446;20.706;2022-09-29T09:46:32;17.05;;;13.80;;
40511;SDS011;26213;52.446;20.706;2022-09-29T09:49:38;17.45;;;11.38;;
40511;SDS011;26213;52.446;20.706;2022-09-29T09:52:10;16.30;;;12.07;;
40511;SDS011;26213;52.446;20.706;2022-09-29T09:54:39;17.35;;;11.45;;
40511;SDS011;26213;52.446;20.706;2022-09-29T10:00:16;13.57;;;9.68;;
40511;SDS011;26213;52.446;20.706;2022-09-29T10:03:03;17.85;;;10.20;;
40511;SDS011;26213;52.446;20.706;2022-09-29T10:05:38;12.00;;;9.43;;
40511;SDS011;26213;52.446;20.706;2022-09-29T10:08:05;11.15;;;9.52;;
40511;SDS011;26213;52.446;20.706;2022-09-29T10:10:33;13.00;;;10.48;;
40511;SDS011;26213;52.446;20.706;2022-09-29T10:13:17;12.90;;;10.55;;
40511;SDS011;26213;52.446;20.706;2022-09-29T10:18:21;13.55;;;10.30;;
40511;SDS011;26213;52.446;20.706;2022-09-29T10:21:19;14.10;;;10.57;;
40511;SDS011;26213;52.446;20.706;2022-09-29T10:23:57;14.13;;;10.65;;
40511;SDS011;26213;52.446;20.706;2022-09-29T10:29:18;16.17;;;11.73;;
40511;SDS011;26213;52.446;20.706;2022-09-29T10:32:03;14.80;;;12.30;;
40511;SDS011;26213;52.446;20.706;2022-09-29T10:34:42;16.95;;;12.20;;
40511;SDS011;26213;52.446;20.706;2022-09-29T10:40:17;16.30;;;12.05;;
40511;SDS011;26213;52.446;20.706;2022-09-29T10:42:48;16.15;;;12.65;;
40511;SDS011;26213;52.446;20.706;2022-09-29T10:45:19;14.80;;;12.55;;
40511;SDS011;26213;52.446;20.706;2022-09-29T10:50:27;16.45;;;13.63;;
40511;SDS011;26213;52.446;20.706;2022-09-29T10:52:58;15.50;;;13.80;;
40511;SDS011;26213;52.446;20.706;2022-09-29T10:55:26;16.23;;;12.43;;
40511;SDS011;26213;52.446;20.706;2022-09-29T11:00:27;15.73;;;12.43;;
40511;SDS011;26213;52.446;20.706;2022-09-29T11:03:19;15.32;;;12.32;;
40511;SDS011;26213;52.446;20.706;2022-09-29T11:05:53;20.83;;;14.07;;
40511;SDS011;26213;52.446;20.706;2022-09-29T11:08:22;14.13;;;10.90;;
40511;SDS011;26213;52.446;20.706;2022-09-29T11:11:16;14.50;;;12.32;;
40511;SDS011;26213;52.446;20.706;2022-09-29T11:13:44;13.88;;;12.05;;
40511;SDS011;26213;52.446;20.706;2022-09-29T11:16:17;16.25;;;11.50;;
40511;SDS011;26213;52.446;20.706;2022-09-29T11:18:55;15.50;;;12.77;;
40511;SDS011;26213;52.446;20.706;2022-09-29T11:29:26;12.98;;;10.45;;
40511;SDS011;26213;52.446;20.706;2022-09-29T11:32:00;12.93;;;11.32;;
40511;SDS011;26213;52.446;20.706;2022-09-29T11:39:57;16.85;;;13.10;;
40511;SDS011;26213;52.446;20.706;2022-09-29T11:45:11;26.30;;;16.85;;
40511;SDS011;26213;52.446;20.706;2022-09-29T11:53:14;14.05;;;12.20;;
40511;SDS011;26213;52.446;20.706;2022-09-29T12:06:16;15.02;;;11.25;;
40511;SDS011;26213;52.446;20.706;2022-09-29T12:11:53;16.42;;;11.63;;
40511;SDS011;26213;52.446;20.706;2022-09-29T12:14:30;13.35;;;11.18;;
40511;SDS011;26213;52.446;20.706;2022-09-29T12:17:03;12.68;;;11.13;;
40511;SDS011;26213;52.446;20.706;2022-09-29T12:19:35;13.15;;;10.43;;
40511;SDS011;26213;52.446;20.706;2022-09-29T12:22:02;17.58;;;13.38;;
40511;SDS011;26213;52.446;20.706;2022-09-29T12:26:59;16.38;;;12.98;;
40511;SDS011;26213;52.446;20.706;2022-09-29T12:31:58;14.93;;;13.15;;
40511;SDS011;26213;52.446;20.706;2022-09-29T12:36:58;18.17;;;12.00;;
40511;SDS011;26213;52.446;20.706;2022-09-29T12:45:21;13.77;;;11.35;;
40511;SDS011;26213;52.446;20.706;2022-09-29T12:50:26;15.45;;;12.27;;
40511;SDS011;26213;52.446;20.706;2022-09-29T12:55:28;15.38;;;12.25;;
40511;SDS011;26213;52.446;20.706;2022-09-29T12:58:00;15.10;;;11.43;;
40511;SDS011;26213;52.446;20.706;2022-09-29T13:00:29;12.32;;;10.00;;
40511;SDS011;26213;52.446;20.706;2022-09-29T13:27:31;15.40;;;11.88;;
40511;SDS011;26213;52.446;20.706;2022-09-29T13:30:04;19.88;;;10.32;;
40511;SDS011;26213;52.446;20.706;2022-09-29T13:32:38;19.27;;;13.40;;
40511;SDS011;26213;52.446;20.706;2022-09-29T13:35:09;17.60;;;12.82;;
40511;SDS011;26213;52.446;20.706;2022-09-29T13:40:35;12.00;;;9.90;;
40511;SDS011;26213;52.446;20.706;2022-09-29T13:43:01;14.57;;;10.82;;
40511;SDS011;26213;52.446;20.706;2022-09-29T13:48:09;16.90;;;10.65;;
40511;SDS011;26213;52.446;20.706;2022-09-29T13:50:55;14.95;;;12.20;;
40511;SDS011;26213;52.446;20.706;2022-09-29T13:58:24;13.18;;;10.05;;
40511;SDS011;26213;52.446;20.706;2022-09-29T14:00:51;15.70;;;10.48;;
40511;SDS011;26213;52.446;20.706;2022-09-29T14:03:38;13.07;;;10.60;;
40511;SDS011;26213;52.446;20.706;2022-09-29T14:08:39;13.23;;;11.13;;
40511;SDS011;26213;52.446;20.706;2022-09-29T14:13:59;13.95;;;9.70;;
40511;SDS011;26213;52.446;20.706;2022-09-29T14:16:50;12.60;;;9.43;;
40511;SDS011;26213;52.446;20.706;2022-09-29T14:19:36;12.65;;;10.55;;
40511;SDS011;26213;52.446;20.706;2022-09-29T14:22:04;10.52;;;8.77;;
40511;SDS011;26213;52.446;20.706;2022-09-29T14:24:52;12.65;;;8.60;;
40511;SDS011;26213;52.446;20.706;2022-09-29T14:27:22;13.50;;;9.60;;
40511;SDS011;26213;52.446;20.706;2022-09-29T14:29:57;11.15;;;8.95;;
40511;SDS011;26213;52.446;20.706;2022-09-29T14:32:31;11.27;;;9.10;;
40511;SDS011;26213;52.446;20.706;2022-09-29T14:35:08;11.75;;;8.98;;
40511;SDS011;26213;52.446;20.706;2022-09-29T14:40:55;11.02;;;9.65;;
40511;SDS011;26213;52.446;20.706;2022-09-29T14:43:42;12.45;;;9.60;;
40511;SDS011;26213;52.446;20.706;2022-09-29T14:55:15;11.57;;;8.40;;
40511;SDS011;26213;52.446;20.706;2022-09-29T15:00:25;12.07;;;7.68;;
40511;SDS011;26213;52.446;20.706;2022-09-29T15:02:55;9.05;;;7.65;;
40511;SDS011;26213;52.446;20.706;2022-09-29T15:05:28;8.35;;;7.32;;
40511;SDS011;26213;52.446;20.706;2022-09-29T15:07:55;9.88;;;7.55;;
40511;SDS011;26213;52.446;20.706;2022-09-29T15:10:26;8.23;;;7.22;;
40511;SDS011;26213;52.446;20.706;2022-09-29T15:15:45;10.27;;;8.18;;
40511;SDS011;26213;52.446;20.706;2022-09-29T15:21:05;9.02;;;7.57;;
40511;SDS011;26213;52.446;20.706;2022-09-29T15:26:21;8.88;;;6.78;;
40511;SDS011;26213;52.446;20.706;2022-09-29T15:28:48;10.90;;;7.90;;
40511;SDS011;26213;52.446;20.706;2022-09-29T15:31:17;9.57;;;7.88;;
40511;SDS011;26213;52.446;20.706;2022-09-29T15:33:44;8.68;;;7.53;;
40511;SDS011;26213;52.446;20.706;2022-09-29T15:36:20;8.68;;;7.63;;
40511;SDS011;26213;52.446;20.706;2022-09-29T15:38:50;9.43;;;7.90;;
40511;SDS011;26213;52.446;20.706;2022-09-29T15:41:17;381.90;;;183.00;;
40511;SDS011;26213;52.446;20.706;2022-09-29T15:43:57;128.27;;;64.72;;
40511;SDS011;26213;52.446;20.706;2022-09-29T15:51:43;20.50;;;15.23;;
40511;SDS011;26213;52.446;20.706;2022-09-29T15:54:19;18.90;;;15.55;;
40511;SDS011;26213;52.446;20.706;2022-09-29T15:56:45;30.83;;;26.48;;
40511;SDS011;26213;52.446;20.706;2022-09-29T16:02:28;24.88;;;21.83;;
40511;SDS011;26213;52.446;20.706;2022-09-29T16:05:03;96.43;;;51.15;;
40511;SDS011;26213;52.446;20.706;2022-09-29T16:07:33;164.98;;;73.45;;
40511;SDS011;26213;52.446;20.706;2022-09-29T16:10:12;97.13;;;51.95;;
40511;SDS011;26213;52.446;20.706;2022-09-29T16:12:44;73.95;;;39.33;;
40511;SDS011;26213;52.446;20.706;2022-09-29T16:15:43;54.92;;;30.33;;
40511;SDS011;26213;52.446;20.706;2022-09-29T16:18:23;133.70;;;59.10;;
40511;SDS011;26213;52.446;20.706;2022-09-29T16:20:52;149.63;;;69.05;;
40511;SDS011;26213;52.446;20.706;2022-09-29T16:23:19;227.38;;;99.93;;
40511;SDS011;26213;52.446;20.706;2022-09-29T16:26:07;199.57;;;88.82;;
40511;SDS011;26213;52.446;20.706;2022-09-29T16:28:35;137.93;;;76.40;;
40511;SDS011;26213;52.446;20.706;2022-09-29T16:31:04;170.40;;;85.60;;
40511;SDS011;26213;52.446;20.706;2022-09-29T16:33:43;136.95;;;71.13;;
40511;SDS011;26213;52.446;20.706;2022-09-29T16:36:13;236.82;;;105.22;;
40511;SDS011;26213;52.446;20.706;2022-09-29T16:38:46;293.80;;;133.65;;
40511;SDS011;26213;52.446;20.706;2022-09-29T16:43:43;263.60;;;156.20;;
40511;SDS011;26213;52.446;20.706;2022-09-29T16:46:20;258.30;;;153.67;;
40511;SDS011;26213;52.446;20.706;2022-09-29T16:48:45;253.57;;;151.43;;
40511;SDS011;26213;52.446;20.706;2022-09-29T16:51:17;261.33;;;155.65;;
40511;SDS011;26213;52.446;20.706;2022-09-29T16:53:44;258.67;;;156.52;;
40511;SDS011;26213;52.446;20.706;2022-09-29T16:56:15;375.75;;;224.18;;
40511;SDS011;26213;52.446;20.706;2022-09-29T16:58:43;396.25;;;222.63;;
40511;SDS011;26213;52.446;20.706;2022-09-29T17:01:09;382.58;;;214.95;;
40511;SDS011;26213;52.446;20.706;2022-09-29T17:03:37;485.83;;;280.30;;
40511;SDS011;26213;52.446;20.706;2022-09-29T17:06:03;752.23;;;464.67;;
40511;SDS011;26213;52.446;20.706;2022-09-29T17:08:29;522.00;;;314.75;;
40511;SDS011;26213;52.446;20.706;2022-09-29T17:10:55;478.58;;;282.30;;
40511;SDS011;26213;52.446;20.706;2022-09-29T17:13:21;445.42;;;253.65;;
40511;SDS011;26213;52.446;20.706;2022-09-29T17:15:48;427.75;;;242.32;;
40511;SDS011;26213;52.446;20.706;2022-09-29T17:18:15;405.05;;;226.43;;
40511;SDS011;26213;52.446;20.706;2022-09-29T17:20:42;427.13;;;235.85;;
40511;SDS011;26213;52.446;20.706;2022-09-29T17:23:07;340.05;;;182.10;;
40511;SDS011;26213;52.446;20.706;2022-09-29T17:25:34;262.88;;;142.70;;
40511;SDS011;26213;52.446;20.706;2022-09-29T17:28:01;275.15;;;148.73;;
40511;SDS011;26213;52.446;20.706;2022-09-29T17:30:36;112.80;;;62.25;;
40511;SDS011;26213;52.446;20.706;2022-09-29T17:33:05;160.18;;;83.63;;
40511;SDS011;26213;52.446;20.706;2022-09-29T17:35:38;234.98;;;120.05;;
40511;SDS011;26213;52.446;20.706;2022-09-29T17:38:05;159.85;;;85.68;;
40511;SDS011;26213;52.446;20.706;2022-09-29T17:40:58;132.93;;;72.00;;
40511;SDS011;26213;52.446;20.706;2022-09-29T17:43:26;236.20;;;122.75;;
40511;SDS011;26213;52.446;20.706;2022-09-29T17:45:55;70.55;;;43.60;;
40511;SDS011;26213;52.446;20.706;2022-09-29T17:48:22;86.28;;;45.80;;
40511;SDS011;26213;52.446;20.706;2022-09-29T17:50:49;196.35;;;105.05;;
40511;SDS011;26213;52.446;20.706;2022-09-29T17:53:15;249.65;;;131.68;;
40511;SDS011;26213;52.446;20.706;2022-09-29T17:55:41;401.83;;;212.60;;
40511;SDS011;26213;52.446;20.706;2022-09-29T17:58:13;263.45;;;134.48;;
40511;SDS011;26213;52.446;20.706;2022-09-29T18:00:41;244.45;;;126.20;;